Airfield :
LOGIN :

Register | Disclaimer

   EN    FR    IT 

 










Legend :    VFR   Marginal VFR   IFR   Intensive IFR   Very Intensive IFR
Visi :
Ceiling :
>= 8 km
>= 3000ft
5 to 8 km
1000 to 3000 ft
1500m to 5 km
500 to 1000 ft
800 to 1500m
200 to 500 ft
< 800m
< 200 ft
Symbols :   Thunderstorms  Fog  Heavy snow  Heavy precipitations  Wind > 20 kt
SIGMETs :     Misc.  Thunderstorms  Icing  Turbulence  Mountain Waves  Volcanic Ashes






- Airport Elevation : 1273 ft
- IATA code : LJU


LJLJ - Ljubljana

CURRENT METAR :
  • 222000Z 00000KT 4000 -RA BR SCT002 BKN009 OVC020 07/07 Q1014 NOSIG

EXPIRED METARs :
  • 221930Z 18002KT 4000 -RA BR FEW002 BKN025 OVC045 07/07 Q1014 NOSIG
  • 221900Z VRB01KT 5000 -RA BR SCT002 BKN025 07/07 Q1014 NOSIG
  • 221830Z VRB01KT 5000 BR SCT002 BKN030 07/07 Q1014 NOSIG
  • 221800Z 18003KT 140V240 8000 FEW001 BKN030 BKN055 07/07 Q1014 NOSIG
  • 221730Z VRB02KT 8000 -RA FEW003 BKN033 BKN055 07/07 Q1014 NOSIG

TAF TAF LJLJ
Valid from the 22 at 18:00 until the 23 at 18:00 UTC


221700Z 2218/2318 VRB02KT 7000 -RA BR FEW007 BKN035 OVC050
TEMPO 2218/2318 3500 -RA BR SCT003 OVC020
PROB40
TEMPO 2300/2307 0500 FG VV001



MET'MAP, your aeronautical weather chart ! - Copyright ORBIFLY December 2007 - Disclaimer

ORBIFLY MET'MAP TEAM :

Programming & Development : Alexandra Zaïnal
Concept & Development : Baudouin d'Aumeries
Co-Development & Prog : Marc-Olivier Méhu
Technical & hardware support : Manuel Goepfert

Contact : metmap@orbifly.com




SOURCES & CREDITS :

   NOAA